Time;durP1;ratioP1;P1;durP2;ratioP2;P2;SDS_P1;SDS_P2;PMS_P1;PMS_P2;Temp;Humidity;BMP_temperature;BMP_pressure;BME280_temperature;BME280_humidity;BME280_pressure;Samples;Min_cycle;Max_cycle;Signal;HPM_P1;HPM_P2
2023/04/26 00:01:59;;;;;;;18.80;7.17;;;6.40;99.90;;;;;;5069253;28;20195;-70
2023/04/26 00:04:27;;;;;;;9.77;5.50;;;6.40;99.90;;;;;;5068730;28;20195;-70
2023/04/26 00:06:53;;;;;;;7.73;5.20;;;6.40;99.90;;;;;;5068821;28;20194;-70
2023/04/26 00:09:19;;;;;;;9.07;6.10;;;6.30;99.90;;;;;;5068930;28;20425;-69
2023/04/26 00:11:44;;;;;;;14.07;4.53;;;6.30;99.90;;;;;;5068881;28;20198;-69
2023/04/26 00:14:10;;;;;;;11.83;5.87;;;6.30;99.90;;;;;;5068606;28;20584;-70
2023/04/26 00:16:36;;;;;;;22.10;10.30;;;6.30;99.90;;;;;;5068749;28;20203;-70
2023/04/26 00:19:02;;;;;;;52.47;22.67;;;6.30;99.90;;;;;;5068565;28;20172;-71
2023/04/26 00:21:28;;;;;;;31.40;16.23;;;6.30;99.90;;;;;;5068575;28;20316;-71
2023/04/26 00:23:53;;;;;;;13.37;6.47;;;6.30;99.90;;;;;;5068790;28;20527;-71
2023/04/26 00:26:20;;;;;;;11.97;6.83;;;6.30;99.90;;;;;;5068645;28;20190;-71
2023/04/26 00:28:45;;;;;;;9.60;5.53;;;6.20;99.90;;;;;;5068305;28;20186;-72
2023/04/26 00:31:15;;;;;;;15.13;7.83;;;6.20;99.90;;;;;;5068540;28;20421;-71
2023/04/26 00:33:41;;;;;;;8.13;6.03;;;6.20;99.90;;;;;;5068461;28;20178;-72
2023/04/26 00:36:07;;;;;;;10.83;5.97;;;6.20;99.90;;;;;;5068516;28;20465;-72
2023/04/26 00:38:32;;;;;;;11.60;6.10;;;6.20;99.90;;;;;;5068555;28;20183;-72
2023/04/26 00:40:58;;;;;;;11.60;5.60;;;6.20;99.90;;;;;;5068634;28;20191;-70
2023/04/26 00:43:23;;;;;;;8.13;5.10;;;6.10;99.90;;;;;;5068461;28;20669;-72
2023/04/26 00:45:50;;;;;;;10.23;5.20;;;6.10;99.90;;;;;;5068606;28;20207;-71
2023/04/26 00:48:16;;;;;;;6.40;5.00;;;5.90;99.90;;;;;;5068747;28;20702;-71
2023/04/26 00:50:43;;;;;;;15.47;4.93;;;5.80;99.90;;;;;;5068462;28;20483;-71
2023/04/26 00:53:09;;;;;;;12.47;4.87;;;5.70;99.90;;;;;;5068503;28;20417;-71
2023/04/26 00:55:35;;;;;;;7.23;4.73;;;5.70;99.90;;;;;;5068441;28;20486;-71
2023/04/26 00:58:01;;;;;;;11.93;5.00;;;5.70;99.90;;;;;;5068482;28;20414;-71
2023/04/26 01:00:27;;;;;;;8.77;4.70;;;5.70;99.90;;;;;;5068963;28;20451;-71
2023/04/26 01:02:52;;;;;;;9.10;5.23;;;5.80;99.90;;;;;;5069094;28;20266;-71
2023/04/26 01:05:18;;;;;;;7.23;5.03;;;5.70;99.90;;;;;;5068873;28;20443;-71
2023/04/26 01:07:44;;;;;;;6.73;4.60;;;5.70;99.90;;;;;;5068615;28;20222;-71
2023/04/26 01:10:10;;;;;;;15.30;5.03;;;5.60;99.90;;;;;;5068844;28;20206;-71
2023/04/26 01:12:37;;;;;;;14.10;5.50;;;5.60;99.90;;;;;;5068505;28;20413;-71
2023/04/26 01:15:04;;;;;;;14.67;6.50;;;5.40;99.90;;;;;;5068299;28;20572;-71
2023/04/26 01:17:30;;;;;;;10.77;6.27;;;5.30;99.90;;;;;;5068138;28;20555;-71
2023/04/26 01:19:56;;;;;;;11.23;5.70;;;5.30;99.90;;;;;;5068194;28;20449;-71
2023/04/26 01:22:21;;;;;;;13.40;5.63;;;5.10;99.90;;;;;;5067892;28;20456;-71
2023/04/26 01:24:50;;;;;;;14.90;5.53;;;5.10;99.90;;;;;;5068050;28;20206;-72
2023/04/26 01:27:16;;;;;;;10.27;4.90;;;5.00;99.90;;;;;;5068117;28;20193;-71
2023/04/26 01:29:42;;;;;;;6.60;5.10;;;4.90;99.90;;;;;;5068333;28;20512;-71
2023/04/26 01:32:08;;;;;;;10.93;5.40;;;4.90;99.90;;;;;;5068082;28;20788;-71
2023/04/26 01:34:33;;;;;;;6.53;5.20;;;4.90;99.90;;;;;;5067941;28;20198;-71
2023/04/26 01:37:00;;;;;;;12.43;6.37;;;4.80;99.90;;;;;;5067876;28;20806;-71
2023/04/26 01:39:26;;;;;;;18.17;7.00;;;4.60;99.90;;;;;;5067720;28;20214;-71
2023/04/26 01:41:52;;;;;;;8.50;5.37;;;4.50;99.90;;;;;;5069637;28;20850;-71
2023/04/26 01:44:18;;;;;;;8.50;6.20;;;4.40;99.90;;;;;;5071640;28;20521;-71
2023/04/26 01:46:43;;;;;;;13.43;6.30;;;4.50;99.90;;;;;;5071401;28;20194;-71
2023/04/26 01:49:09;;;;;;;13.50;6.50;;;4.50;99.90;;;;;;5071533;28;20188;-71
2023/04/26 01:51:35;;;;;;;12.80;6.27;;;4.60;99.90;;;;;;5071364;28;20668;-71
2023/04/26 01:54:01;;;;;;;13.20;6.60;;;4.50;99.90;;;;;;5071462;28;20246;-71
2023/04/26 01:56:26;;;;;;;9.20;5.40;;;4.50;99.90;;;;;;5071281;28;20203;-71
2023/04/26 01:58:54;;;;;;;12.43;6.07;;;4.60;99.90;;;;;;5071402;28;20417;-71
2023/04/26 02:01:20;;;;;;;15.90;6.20;;;4.60;99.90;;;;;;5071177;28;20181;-71
2023/04/26 02:03:45;;;;;;;21.67;6.53;;;4.50;99.90;;;;;;5071032;28;20432;-72
2023/04/26 02:06:11;;;;;;;8.57;4.97;;;4.30;99.90;;;;;;5071166;28;20474;-71
2023/04/26 02:08:37;;;;;;;12.47;6.10;;;4.20;99.90;;;;;;5071267;28;20182;-72
2023/04/26 02:11:02;;;;;;;9.80;6.50;;;4.30;99.90;;;;;;5070969;28;20182;-71
2023/04/26 02:13:28;;;;;;;12.67;5.53;;;4.30;99.90;;;;;;5069683;28;20266;-71
2023/04/26 02:15:53;;;;;;;10.40;5.20;;;4.30;99.90;;;;;;5070839;28;20214;-71
2023/04/26 02:18:21;;;;;;;10.83;6.00;;;4.50;99.90;;;;;;5070917;28;20186;-70
2023/04/26 02:20:47;;;;;;;14.03;6.33;;;4.60;99.90;;;;;;5070879;28;20178;-71
2023/04/26 02:23:12;;;;;;;11.00;6.60;;;4.70;99.90;;;;;;5070980;28;20528;-70
2023/04/26 02:25:38;;;;;;;12.30;6.43;;;4.70;99.90;;;;;;5070838;28;20252;-70
2023/04/26 02:28:04;;;;;;;9.83;6.10;;;4.80;99.90;;;;;;5070920;28;20216;-70
2023/04/26 02:30:30;;;;;;;8.57;5.57;;;4.80;99.90;;;;;;5070990;28;20576;-70
2023/04/26 02:32:56;;;;;;;10.50;5.80;;;4.80;99.90;;;;;;5071090;28;20424;-70
2023/04/26 02:35:22;;;;;;;9.13;5.30;;;4.90;99.90;;;;;;5070860;28;20437;-71
2023/04/26 02:37:48;;;;;;;10.07;5.67;;;4.80;99.90;;;;;;5071073;28;21016;-71
2023/04/26 02:40:14;;;;;;;17.80;6.40;;;4.80;99.90;;;;;;5071188;28;20447;-71
2023/04/26 02:42:40;;;;;;;13.10;7.00;;;4.80;99.90;;;;;;5071269;28;20186;-70
2023/04/26 02:45:07;;;;;;;11.03;6.10;;;4.90;99.90;;;;;;5071197;28;20442;-70
2023/04/26 02:47:35;;;;;;;9.30;6.33;;;4.90;99.90;;;;;;5086519;28;20452;-71
2023/04/26 02:50:04;;;;;;;11.60;6.27;;;4.80;99.90;;;;;;5070899;28;20424;-71
2023/04/26 02:52:29;;;;;;;14.53;5.57;;;4.80;99.90;;;;;;5070473;28;20423;-71
2023/04/26 02:54:55;;;;;;;13.40;7.20;;;4.70;99.90;;;;;;5070272;28;20890;-70
2023/04/26 02:57:21;;;;;;;16.47;6.80;;;4.60;99.90;;;;;;5070322;28;20590;-70
2023/04/26 02:59:46;;;;;;;12.37;7.13;;;4.50;99.90;;;;;;5070302;28;20259;-70
2023/04/26 03:02:12;;;;;;;15.93;6.77;;;4.50;99.90;;;;;;5070264;28;20187;-69
2023/04/26 03:04:38;;;;;;;17.30;7.50;;;4.40;99.90;;;;;;5070025;28;20205;-71
2023/04/26 03:07:04;;;;;;;11.40;7.13;;;4.30;99.90;;;;;;5085571;28;20191;-70
2023/04/26 03:09:30;;;;;;;13.50;7.87;;;4.10;99.90;;;;;;5070108;28;21048;-70
2023/04/26 03:11:56;;;;;;;13.73;8.80;;;4.10;99.90;;;;;;5070150;28;20202;-71
2023/04/26 03:14:21;;;;;;;12.70;8.70;;;4.00;99.90;;;;;;5069841;28;20203;-71
2023/04/26 03:16:47;;;;;;;16.00;9.13;;;4.00;99.90;;;;;;5069652;28;20210;-71
2023/04/26 03:19:13;;;;;;;17.50;8.87;;;4.00;99.90;;;;;;5069782;28;20179;-71
2023/04/26 03:21:39;;;;;;;19.17;9.33;;;4.00;99.90;;;;;;5069781;28;21007;-71
2023/04/26 03:24:05;;;;;;;17.93;8.17;;;4.00;99.90;;;;;;5070095;28;20437;-71
2023/04/26 03:26:31;;;;;;;11.50;6.90;;;4.00;99.90;;;;;;5070098;28;20425;-71
2023/04/26 03:28:57;;;;;;;10.03;6.57;;;4.10;99.90;;;;;;5070301;28;20448;-71
2023/04/26 03:31:22;;;;;;;16.93;8.43;;;4.10;99.90;;;;;;5069591;28;20198;-71
2023/04/26 03:33:48;;;;;;;13.60;7.90;;;3.80;99.90;;;;;;5069613;28;20182;-70
2023/04/26 03:36:14;;;;;;;19.53;8.57;;;3.60;99.90;;;;;;5069511;28;20215;-71
2023/04/26 03:38:41;;;;;;;19.37;9.50;;;3.60;99.90;;;;;;5069551;28;20182;-71
2023/04/26 03:41:07;;;;;;;16.55;9.02;;;3.60;99.90;;;;;;5084538;28;20273;-71
2023/04/26 03:43:32;;;;;;;16.53;7.73;;;3.80;99.90;;;;;;5069225;28;20193;-71
2023/04/26 03:45:59;;;;;;;14.43;9.13;;;3.70;99.90;;;;;;5069577;28;20178;-71
2023/04/26 03:48:26;;;;;;;24.30;10.10;;;3.70;99.90;;;;;;5069440;28;20177;-71
2023/04/26 03:50:52;;;;;;;17.77;9.50;;;3.70;99.90;;;;;;5069235;28;20413;-71
2023/04/26 03:53:18;;;;;;;14.30;8.30;;;3.90;99.90;;;;;;5069198;28;20416;-70
2023/04/26 03:55:43;;;;;;;15.70;9.20;;;4.00;99.90;;;;;;5068952;28;20946;-71
2023/04/26 03:58:09;;;;;;;21.67;10.13;;;4.10;99.90;;;;;;5068997;28;20674;-70
2023/04/26 04:00:38;;;;;;;17.77;10.87;;;4.10;99.90;;;;;;5068856;28;20508;-70
2023/04/26 04:03:05;;;;;;;20.10;9.83;;;4.00;99.90;;;;;;5068752;28;20662;-70
2023/04/26 04:05:31;;;;;;;19.90;9.35;;;3.90;99.90;;;;;;5068346;28;20803;-70
2023/04/26 04:07:57;;;;;;;14.73;10.10;;;3.70;99.90;;;;;;5069310;28;20278;-70
2023/04/26 04:10:22;;;;;;;22.50;10.70;;;3.60;99.90;;;;;;5077760;28;20413;-70
2023/04/26 04:12:49;;;;;;;22.43;10.23;;;3.60;99.90;;;;;;5081099;28;20194;-70
2023/04/26 04:15:15;;;;;;;21.10;9.83;;;3.70;99.90;;;;;;5081928;28;20212;-70
2023/04/26 04:17:41;;;;;;;19.55;10.10;;;3.70;99.90;;;;;;5081707;28;20460;-70
2023/04/26 04:20:07;;;;;;;21.37;10.23;;;3.70;99.90;;;;;;5082271;28;20187;-69
2023/04/26 04:22:33;;;;;;;15.43;8.83;;;3.80;99.90;;;;;;5079369;28;20214;-69
2023/04/26 04:24:59;;;;;;;14.25;9.55;;;3.70;99.90;;;;;;5077595;28;20440;-69
2023/04/26 04:27:27;;;;;;;17.77;9.00;;;3.70;99.90;;;;;;5076401;28;20220;-69
2023/04/26 04:29:54;;;;;;;20.38;9.88;;;3.80;99.90;;;;;;5092198;28;20432;-69
2023/04/26 04:32:22;;;;;;;16.63;9.13;;;3.80;99.90;;;;;;5076438;28;20201;-69
2023/04/26 04:34:47;;;;;;;13.30;9.23;;;3.70;99.90;;;;;;5075439;28;20445;-69
2023/04/26 04:37:13;;;;;;;21.00;9.53;;;3.70;99.90;;;;;;5073331;28;20240;-69
2023/04/26 04:39:39;;;;;;;12.90;8.30;;;3.70;99.90;;;;;;5072171;28;20226;-69
2023/04/26 04:42:04;;;;;;;18.80;9.17;;;3.60;99.90;;;;;;5073912;28;20879;-69
2023/04/26 04:44:31;;;;;;;13.60;9.33;;;3.60;99.90;;;;;;5073236;28;20277;-69
2023/04/26 04:46:57;;;;;;;16.52;10.85;;;3.70;99.90;;;;;;5072793;28;20200;-69
2023/04/26 04:49:23;;;;;;;14.50;8.50;;;3.80;99.90;;;;;;5072930;28;20213;-69
2023/04/26 04:51:49;;;;;;;17.65;8.38;;;4.00;99.90;;;;;;5072071;28;20212;-69
2023/04/26 04:54:16;;;;;;;14.45;8.50;;;4.00;99.90;;;;;;5072467;28;20730;-70
2023/04/26 04:56:43;;;;;;;18.27;9.50;;;4.00;99.90;;;;;;5072502;28;20288;-70
2023/04/26 04:59:09;;;;;;;16.13;8.18;;;4.10;99.90;;;;;;5071420;28;20420;-70
2023/04/26 05:01:38;;;;;;;13.13;8.25;;;4.20;99.90;;;;;;5070244;28;20668;-70
2023/04/26 05:04:05;;;;;;;22.90;9.30;;;4.20;99.90;;;;;;5070677;28;20546;-70
2023/04/26 05:06:33;;;;;;;21.07;11.90;;;4.30;99.90;;;;;;5069339;28;20901;-70
2023/04/26 05:09:00;;;;;;;14.87;10.13;;;4.40;99.90;;;;;;5069759;28;20770;-69
2023/04/26 05:11:26;;;;;;;22.10;10.40;;;4.60;99.90;;;;;;5069419;28;20545;-69
2023/04/26 05:13:51;;;;;;;14.67;8.50;;;4.70;99.90;;;;;;5069168;28;20564;-69
2023/04/26 05:16:17;;;;;;;16.73;9.30;;;4.80;99.90;;;;;;5069987;28;20225;-69
2023/04/26 05:18:43;;;;;;;17.10;7.87;;;4.80;99.90;;;;;;5074137;28;20189;-69
2023/04/26 05:21:08;;;;;;;13.20;9.40;;;4.70;99.90;;;;;;5073579;28;20183;-69
2023/04/26 05:23:34;;;;;;;16.97;8.80;;;4.80;99.90;;;;;;5072036;28;20210;-69
2023/04/26 05:26:03;;;;;;;13.13;7.80;;;5.00;99.90;;;;;;5072624;28;20214;-69
2023/04/26 05:28:29;;;;;;;18.92;9.32;;;5.10;99.90;;;;;;5072762;28;20930;-69
2023/04/26 05:30:55;;;;;;;20.63;9.47;;;5.20;99.90;;;;;;5073027;28;20183;-70
2023/04/26 05:33:20;;;;;;;15.73;8.03;;;5.30;99.90;;;;;;5072048;28;20264;-70
2023/04/26 05:35:46;;;;;;;16.93;9.10;;;5.40;99.90;;;;;;5073450;28;20221;-69
2023/04/26 05:38:11;;;;;;;15.70;7.60;;;5.50;99.90;;;;;;5072955;28;20282;-70
2023/04/26 05:40:37;;;;;;;12.00;7.90;;;5.70;99.90;;;;;;5072345;28;20199;-70
2023/04/26 05:43:03;;;;;;;16.40;8.67;;;5.70;99.90;;;;;;5071750;28;20187;-70
2023/04/26 05:45:28;;;;;;;16.90;9.40;;;5.80;99.90;;;;;;5071653;28;20202;-70
2023/04/26 05:47:54;;;;;;;13.00;9.23;;;5.90;99.90;;;;;;5071869;28;20207;-70
2023/04/26 05:50:20;;;;;;;16.43;8.77;;;6.00;99.90;;;;;;5071324;28;20199;-70
2023/04/26 05:52:46;;;;;;;18.57;8.80;;;6.20;99.90;;;;;;5070237;28;20417;-70
2023/04/26 05:55:12;;;;;;;13.33;9.57;;;6.30;99.90;;;;;;5070128;28;20289;-69
2023/04/26 05:57:38;;;;;;;11.30;8.57;;;6.30;99.90;;;;;;5070189;28;20268;-70
2023/04/26 06:00:05;;;;;;;16.23;10.40;;;6.30;99.90;;;;;;5070439;28;20409;-70
2023/04/26 06:02:30;;;;;;;17.17;9.30;;;6.40;99.90;;;;;;5070806;28;20844;-70
2023/04/26 06:04:56;;;;;;;15.50;9.20;;;6.60;99.90;;;;;;5070457;28;20438;-69
2023/04/26 06:07:22;;;;;;;14.37;9.43;;;6.70;99.90;;;;;;5070572;28;20225;-70
2023/04/26 06:09:48;;;;;;;16.77;9.50;;;6.90;99.90;;;;;;5070421;28;20191;-69
2023/04/26 06:12:13;;;;;;;19.90;9.30;;;7.10;99.90;;;;;;5070363;28;20175;-70
2023/04/26 06:14:39;;;;;;;14.70;8.47;;;7.20;99.90;;;;;;5070400;28;20864;-70
2023/04/26 06:17:05;;;;;;;19.30;9.50;;;7.20;99.90;;;;;;5070014;28;20567;-70
2023/04/26 06:19:30;;;;;;;21.40;9.47;;;7.30;99.90;;;;;;5070206;28;20263;-70
2023/04/26 06:21:56;;;;;;;14.10;7.93;;;7.30;99.90;;;;;;5070005;28;20221;-69
2023/04/26 06:24:24;;;;;;;11.30;7.93;;;7.40;99.90;;;;;;5069637;28;20203;-70
2023/04/26 06:26:50;;;;;;;14.77;8.40;;;7.50;99.90;;;;;;5069263;28;20270;-70
2023/04/26 06:29:16;;;;;;;14.63;8.93;;;7.50;99.90;;;;;;5069399;28;20506;-69
2023/04/26 06:31:41;;;;;;;12.63;8.97;;;7.60;99.90;;;;;;5069325;28;20183;-69
2023/04/26 06:34:07;;;;;;;14.37;8.40;;;7.80;99.90;;;;;;5069134;28;20635;-69
2023/04/26 06:36:33;;;;;;;14.53;9.07;;;7.90;99.90;;;;;;5069231;28;20243;-70
2023/04/26 06:38:58;;;;;;;15.20;9.00;;;7.80;99.90;;;;;;5069411;28;20185;-69
2023/04/26 06:41:24;;;;;;;16.93;8.43;;;7.90;99.90;;;;;;5067893;28;20187;-69
2023/04/26 06:43:49;;;;;;;14.17;7.53;;;8.00;99.90;;;;;;5069131;28;20287;-70
2023/04/26 06:46:15;;;;;;;12.77;7.60;;;8.20;99.90;;;;;;5069008;28;20187;-69
2023/04/26 06:48:41;;;;;;;12.50;7.27;;;8.40;99.90;;;;;;5069465;28;20191;-70
2023/04/26 06:51:07;;;;;;;23.80;9.73;;;8.40;99.90;;;;;;5069187;28;20178;-70
2023/04/26 06:53:33;;;;;;;13.73;8.67;;;8.50;99.90;;;;;;5068971;28;20812;-70
2023/04/26 06:55:59;;;;;;;11.77;8.47;;;8.70;99.90;;;;;;5068865;28;20799;-70
2023/04/26 06:58:25;;;;;;;12.90;7.37;;;8.70;99.90;;;;;;5068901;28;20417;-70
2023/04/26 07:00:50;;;;;;;15.03;7.60;;;8.80;99.90;;;;;;5068498;28;20187;-70
2023/04/26 07:03:16;;;;;;;10.70;7.37;;;8.80;99.90;;;;;;5068813;28;20183;-70
2023/04/26 07:05:41;;;;;;;14.57;7.17;;;8.70;99.90;;;;;;5068800;28;20206;-69
2023/04/26 07:08:07;;;;;;;10.80;6.80;;;8.80;99.90;;;;;;5084217;28;20976;-70
2023/04/26 07:10:32;;;;;;;16.23;7.87;;;8.90;99.90;;;;;;5068892;28;20179;-70
2023/04/26 07:12:59;;;;;;;13.87;7.40;;;8.90;99.90;;;;;;5068936;28;20668;-70
2023/04/26 07:15:24;;;;;;;16.07;7.50;;;8.90;99.90;;;;;;5068987;28;20700;-69
2023/04/26 07:17:50;;;;;;;14.83;7.13;;;9.00;99.90;;;;;;5069300;28;20471;-70
2023/04/26 07:20:19;;;;;;;19.23;7.60;;;9.10;99.90;;;;;;5069157;28;20187;-70
2023/04/26 07:22:45;;;;;;;10.60;6.40;;;9.20;99.90;;;;;;5068951;28;20263;-69
2023/04/26 07:25:11;;;;;;;13.07;7.43;;;9.20;99.90;;;;;;5068540;28;20801;-69
2023/04/26 07:27:37;;;;;;;11.67;6.37;;;9.20;99.90;;;;;;5068220;28;20422;-69
2023/04/26 07:30:04;;;;;;;11.47;7.47;;;9.20;99.90;;;;;;5068052;28;20190;-70
2023/04/26 07:32:29;;;;;;;14.40;7.03;;;9.30;99.90;;;;;;5068123;28;20591;-69
2023/04/26 07:34:56;;;;;;;16.90;6.37;;;9.40;99.90;;;;;;5068283;28;20459;-69
2023/04/26 07:37:22;;;;;;;13.97;5.63;;;9.50;99.90;;;;;;5067989;28;20215;-70
2023/04/26 07:39:47;;;;;;;14.63;5.97;;;9.60;99.90;;;;;;5067038;28;20441;-70
2023/04/26 07:42:14;;;;;;;12.43;6.00;;;9.80;99.90;;;;;;5067725;28;20420;-70
2023/04/26 07:44:39;;;;;;;19.27;7.40;;;9.90;99.90;;;;;;5067771;28;20606;-70
2023/04/26 07:47:10;;;;;;;11.97;7.50;;;10.10;99.90;;;;;;5067970;28;20417;-70
2023/04/26 07:49:36;;;;;;;14.80;7.60;;;10.50;99.90;;;;;;5067682;28;20287;-69
2023/04/26 07:52:02;;;;;;;10.27;6.27;;;10.80;99.90;;;;;;5067678;28;20513;-69
2023/04/26 07:54:27;;;;;;;13.90;7.00;;;10.60;99.90;;;;;;5067683;28;20208;-70
2023/04/26 07:56:54;;;;;;;12.40;6.27;;;10.50;99.90;;;;;;5067460;28;20230;-70
2023/04/26 07:59:19;;;;;;;11.67;7.30;;;10.50;99.90;;;;;;5067495;28;20237;-70
2023/04/26 08:01:45;;;;;;;14.30;6.40;;;10.70;99.90;;;;;;5067763;28;20413;-70
2023/04/26 08:04:11;;;;;;;18.57;7.97;;;11.20;99.90;;;;;;5067390;28;20199;-70
2023/04/26 08:06:37;;;;;;;18.30;7.93;;;11.40;99.90;;;;;;5067592;28;20194;-70
2023/04/26 08:09:04;;;;;;;17.27;7.63;;;11.70;99.90;;;;;;5067462;28;20264;-70
2023/04/26 08:11:29;;;;;;;17.23;6.50;;;11.80;99.90;;;;;;5067465;28;20478;-70
2023/04/26 08:13:55;;;;;;;13.20;5.77;;;11.80;99.90;;;;;;5067342;28;20921;-70
2023/04/26 08:16:20;;;;;;;10.43;6.37;;;11.70;99.90;;;;;;5067249;28;20200;-70
2023/04/26 08:18:46;;;;;;;11.87;6.37;;;11.80;99.90;;;;;;5067527;28;20187;-70
2023/04/26 08:21:12;;;;;;;7.27;5.90;;;12.10;99.90;;;;;;5067335;28;20220;-70
2023/04/26 08:23:38;;;;;;;13.50;6.43;;;12.30;99.60;;;;;;5067349;28;20185;-70
2023/04/26 08:26:03;;;;;;;10.70;5.00;;;12.30;98.40;;;;;;5067454;28;20178;-70
2023/04/26 08:28:29;;;;;;;9.50;5.00;;;12.30;98.60;;;;;;5067308;28;20184;-70
2023/04/26 08:30:55;;;;;;;9.97;5.43;;;12.30;96.20;;;;;;5067321;28;20191;-70
2023/04/26 08:33:20;;;;;;;6.97;4.70;;;12.60;96.80;;;;;;5067312;28;20213;-70
2023/04/26 08:35:46;;;;;;;12.93;4.63;;;12.70;96.90;;;;;;5065747;28;20550;-70
2023/04/26 08:38:12;;;;;;;10.43;5.03;;;12.80;94.60;;;;;;5067297;28;20211;-70
2023/04/26 08:40:37;;;;;;;8.60;4.87;;;13.10;94.30;;;;;;5067165;28;20200;-69
2023/04/26 08:43:03;;;;;;;8.63;4.70;;;13.20;95.00;;;;;;5067314;28;20674;-69
2023/04/26 08:45:30;;;;;;;10.90;5.53;;;13.20;94.80;;;;;;5067046;28;20207;-70
2023/04/26 08:48:10;;;;;;;10.63;5.50;;;13.70;92.20;;;;;;5067211;28;20186;-70
2023/04/26 08:50:39;;;;;;;9.30;4.90;;;13.60;90.30;;;;;;5068582;28;20448;-70
2023/04/26 08:53:05;;;;;;;12.97;5.30;;;13.70;90.40;;;;;;5071294;28;20429;-70
2023/04/26 08:55:32;;;;;;;14.00;5.70;;;13.90;89.40;;;;;;5071280;28;20479;-71
2023/04/26 08:57:59;;;;;;;13.13;5.20;;;13.80;91.40;;;;;;5071026;28;20465;-70
2023/04/26 09:00:26;;;;;;;11.03;5.53;;;13.60;90.00;;;;;;5071094;28;20418;-70
2023/04/26 09:02:52;;;;;;;9.87;4.43;;;13.20;87.80;;;;;;5070985;28;20425;-70
2023/04/26 09:05:22;;;;;;;9.07;4.97;;;13.20;86.30;;;;;;5070846;28;20436;-70
2023/04/26 09:07:49;;;;;;;12.70;5.57;;;12.90;88.70;;;;;;5071120;28;20408;-69
2023/04/26 09:10:20;;;;;;;5.50;3.80;;;12.70;90.30;;;;;;5070784;28;20461;-70
2023/04/26 09:12:49;;;;;;;8.40;4.50;;;13.00;90.20;;;;;;5070944;28;20478;-70
2023/04/26 09:15:16;;;;;;;6.73;3.70;;;13.70;88.70;;;;;;5070676;28;20962;-70
2023/04/26 09:17:42;;;;;;;11.57;4.40;;;14.50;86.90;;;;;;5070984;28;20837;-69
2023/04/26 09:20:24;;;;;;;9.77;5.10;;;14.40;79.40;;;;;;5070774;28;20436;-69
2023/04/26 09:22:52;;;;;;;8.50;4.73;;;14.20;77.90;;;;;;5070888;28;20408;-69
2023/04/26 09:25:26;;;;;;;7.70;4.07;;;13.90;77.00;;;;;;5070740;28;20451;-69
2023/04/26 09:27:52;;;;;;;6.90;3.93;;;14.30;82.50;;;;;;5070636;28;20413;-69
2023/04/26 09:30:19;;;;;;;11.10;4.23;;;15.10;80.00;;;;;;5070665;28;20775;-69
2023/04/26 09:32:49;;;;;;;8.47;4.53;;;15.50;79.10;;;;;;5070585;28;20660;-69
2023/04/26 09:35:28;;;;;;;11.50;4.60;;;15.00;73.00;;;;;;5070428;28;20433;-69
2023/04/26 09:38:00;;;;;;;13.43;4.97;;;14.20;75.20;;;;;;5070214;28;20476;-69
2023/04/26 09:40:28;;;;;;;6.00;3.80;;;13.60;81.20;;;;;;5070082;28;21035;-69
2023/04/26 09:43:04;;;;;;;8.27;3.70;;;13.20;82.90;;;;;;5070287;28;20909;-69
2023/04/26 09:45:32;;;;;;;14.37;3.70;;;13.10;85.90;;;;;;5069770;28;20498;-69
2023/04/26 09:48:20;;;;;;;6.47;3.20;;;12.90;84.30;;;;;;5069812;28;20956;-70
2023/04/26 09:50:45;;;;;;;15.33;4.50;;;12.80;84.70;;;;;;5070042;28;20800;-70
2023/04/26 09:53:27;;;;;;;12.07;3.90;;;12.70;86.70;;;;;;5070298;28;20446;-70
2023/04/26 09:55:54;;;;;;;8.13;4.50;;;13.00;87.50;;;;;;5069891;28;20704;-70
2023/04/26 09:58:21;;;;;;;7.90;3.97;;;13.60;81.90;;;;;;5069809;28;20605;-69
2023/04/26 10:00:49;;;;;;;10.43;4.40;;;14.40;79.00;;;;;;5069780;28;20414;-70
2023/04/26 10:03:17;;;;;;;8.37;4.07;;;15.50;76.60;;;;;;5068780;28;20413;-70
2023/04/26 10:05:43;;;;;;;7.77;3.70;;;15.70;75.70;;;;;;5069306;28;20434;-70
2023/04/26 10:08:10;;;;;;;7.30;3.40;;;15.10;72.30;;;;;;5069725;28;20417;-70
2023/04/26 10:10:36;;;;;;;5.37;3.00;;;15.40;77.00;;;;;;5069682;28;20417;-70
2023/04/26 10:13:04;;;;;;;8.00;3.70;;;15.50;77.10;;;;;;5069405;28;20426;-69
2023/04/26 10:15:31;;;;;;;5.43;3.13;;;16.20;71.90;;;;;;5069486;28;20450;-69
2023/04/26 10:17:56;;;;;;;8.17;3.37;;;16.20;72.20;;;;;;5069400;28;20468;-70
2023/04/26 10:20:26;;;;;;;9.97;3.73;;;15.90;70.80;;;;;;5069538;28;20418;-70
2023/04/26 10:22:59;;;;;;;8.07;2.90;;;15.20;73.80;;;;;;5069406;28;20611;-70
2023/04/26 10:25:35;;;;;;;7.90;3.07;;;14.80;71.20;;;;;;5069215;28;20431;-70
2023/04/26 10:28:02;;;;;;;8.40;3.10;;;14.50;71.30;;;;;;5069994;28;20417;-71
2023/04/26 10:30:28;;;;;;;8.23;3.30;;;14.50;70.50;;;;;;5069607;28;20998;-68
2023/04/26 10:32:57;;;;;;;4.90;3.20;;;15.10;77.20;;;;;;5069510;28;20763;-69
2023/04/26 10:35:26;;;;;;;6.67;3.90;;;16.00;71.20;;;;;;5068971;28;20470;-71
2023/04/26 10:37:58;;;;;;;6.13;3.50;;;15.90;70.60;;;;;;5069111;28;20504;-70
2023/04/26 10:40:38;;;;;;;5.93;3.00;;;15.40;64.40;;;;;;5069024;28;20461;-70
2023/04/26 10:43:13;;;;;;;5.43;2.80;;;15.10;69.00;;;;;;5069081;28;20421;-70
2023/04/26 10:45:40;;;;;;;8.27;3.67;;;15.00;72.10;;;;;;5067485;28;20855;-71
2023/04/26 10:48:19;;;;;;;5.43;3.20;;;15.10;72.60;;;;;;5069165;28;20435;-71
2023/04/26 10:51:00;;;;;;;9.97;3.57;;;15.50;74.30;;;;;;5068664;28;20483;-71
2023/04/26 10:53:30;;;;;;;5.07;3.43;;;15.30;74.30;;;;;;5068918;28;20416;-71
2023/04/26 10:55:56;;;;;;;8.90;4.37;;;14.70;72.70;;;;;;5084035;28;20952;-70
2023/04/26 10:58:32;;;;;;;9.83;3.50;;;14.60;71.90;;;;;;5068773;28;20484;-70
2023/04/26 11:01:12;;;;;;;10.43;3.80;;;14.50;73.20;;;;;;5069009;28;20171;-71
2023/04/26 11:03:39;;;;;;;6.90;3.43;;;14.20;74.00;;;;;;5068671;28;20460;-70
2023/04/26 11:06:12;;;;;;;7.53;3.00;;;14.10;73.30;;;;;;5068717;28;20413;-71
2023/04/26 11:08:38;;;;;;;3.93;2.80;;;14.20;74.20;;;;;;5069084;28;20924;-70
2023/04/26 11:11:04;;;;;;;5.53;2.93;;;14.70;71.90;;;;;;5068757;28;20490;-69
2023/04/26 11:13:36;;;;;;;16.77;3.10;;;15.20;68.70;;;;;;5068679;28;20186;-68
2023/04/26 11:16:04;;;;;;;7.33;3.07;;;15.20;70.60;;;;;;5066855;28;20179;-70
2023/04/26 11:18:31;;;;;;;6.87;3.23;;;14.90;70.50;;;;;;5066919;28;20971;-69
2023/04/26 11:20:58;;;;;;;4.67;3.10;;;14.70;70.10;;;;;;5068257;28;20421;-70
2023/04/26 11:23:27;;;;;;;6.43;2.73;;;15.00;68.90;;;;;;5068152;28;20816;-70
2023/04/26 11:25:53;;;;;;;6.43;2.93;;;15.20;70.30;;;;;;5068717;28;20785;-70
2023/04/26 11:28:22;;;;;;;5.57;3.00;;;15.30;68.20;;;;;;5068049;28;20649;-69
2023/04/26 11:30:49;;;;;;;5.20;3.13;;;15.50;67.90;;;;;;5066766;28;20875;-70
2023/04/26 11:33:21;;;;;;;10.83;3.73;;;16.20;67.40;;;;;;5068086;28;20945;-70
2023/04/26 11:35:48;;;;;;;12.67;3.37;;;16.50;68.20;;;;;;5068079;28;20947;-70
2023/04/26 11:38:14;;;;;;;10.17;4.33;;;16.50;68.90;;;;;;5068191;28;20483;-70
2023/04/26 11:40:40;;;;;;;6.90;3.83;;;16.00;68.90;;;;;;5068162;28;20450;-70
2023/04/26 11:43:07;;;;;;;5.53;3.50;;;15.60;68.90;;;;;;5068136;28;20417;-70
2023/04/26 11:45:36;;;;;;;4.80;3.50;;;15.10;67.90;;;;;;5068484;28;20426;-70
2023/04/26 11:48:03;;;;;;;11.50;3.50;;;14.80;71.20;;;;;;5068394;28;20800;-69
2023/04/26 11:50:32;;;;;;;6.83;3.30;;;14.80;67.10;;;;;;5068486;28;20459;-70
2023/04/26 11:52:59;;;;;;;9.60;3.90;;;14.80;68.10;;;;;;5068359;28;20410;-69
2023/04/26 11:55:33;;;;;;;4.07;3.37;;;14.60;68.10;;;;;;5068121;28;20472;-69
2023/04/26 11:57:59;;;;;;;6.53;3.50;;;14.40;69.10;;;;;;5068359;28;20471;-70
2023/04/26 12:00:25;;;;;;;10.50;3.20;;;14.50;69.60;;;;;;5068387;28;20978;-69
2023/04/26 12:02:52;;;;;;;6.87;3.60;;;14.70;67.50;;;;;;5068518;28;20429;-69
2023/04/26 12:05:30;;;;;;;9.37;3.93;;;15.20;68.30;;;;;;5068363;28;20477;-70
2023/04/26 12:07:57;;;;;;;9.90;3.90;;;15.60;66.70;;;;;;5067749;28;20422;-69
2023/04/26 12:10:31;;;;;;;10.73;3.53;;;15.90;68.00;;;;;;5067665;28;20953;-70
2023/04/26 12:12:58;;;;;;;6.73;2.70;;;16.20;67.70;;;;;;5067925;28;20436;-70
2023/04/26 12:15:29;;;;;;;10.80;3.80;;;16.30;67.70;;;;;;5068061;28;20632;-70
2023/04/26 12:18:00;;;;;;;8.70;3.80;;;16.70;66.00;;;;;;5067399;28;20472;-70
2023/04/26 12:20:27;;;;;;;5.27;3.17;;;16.80;59.40;;;;;;5067488;28;20778;-70
2023/04/26 12:23:01;;;;;;;11.93;3.60;;;16.90;59.50;;;;;;5067072;28;20418;-70
2023/04/26 12:25:28;;;;;;;4.23;2.60;;;17.10;62.10;;;;;;5066819;28;20469;-70
2023/04/26 12:27:53;;;;;;;3.30;2.47;;;17.40;63.70;;;;;;5067047;28;20431;-70
2023/04/26 12:30:20;;;;;;;4.47;3.10;;;17.50;61.20;;;;;;5066871;28;20424;-70
2023/04/26 12:32:46;;;;;;;8.23;3.23;;;17.10;60.20;;;;;;5067403;28;20479;-70
2023/04/26 12:35:11;;;;;;;7.80;2.70;;;16.70;64.20;;;;;;5066683;28;20961;-70
2023/04/26 12:37:37;;;;;;;3.53;2.70;;;17.00;63.20;;;;;;5066735;28;20571;-70
2023/04/26 12:40:03;;;;;;;6.00;2.80;;;17.40;65.10;;;;;;5066785;28;20207;-70
2023/04/26 12:42:29;;;;;;;7.40;2.97;;;17.70;64.30;;;;;;5066896;28;20191;-70
2023/04/26 12:44:54;;;;;;;4.40;2.57;;;17.50;60.60;;;;;;5066620;28;20771;-70